Hlavní strana
METAR-TAF:

METAR-TAF

Letiště :

Mezinárodní letiště Šanghaj Pchu-tung

Šanghaj-Pudong, Čína

zeměpisná šířka: 31-07N, zeměpisná délka: 121-46E, výška: 4 m

Aktuální stav počasí

Zpráva byla vytvořena před 31 minutami, v 22:30 UTC
Jihovýchodní vítr 4 kt
Teplota 25°C
Vlhkost vzduchu 94%
Tlak 1001 hPa
Viditelnost: 7000 m

METAR: ZSPD 182230Z 14002MPS 7000 NSC 25/24 Q1001 NOSIG

Čas: 07:01 (23:01 UTC)

Předpověď počasí

Zpráva byla vytvořena před 7 hodinami a 48 minutami, v 15:13 UTC
Předpověď platná od 18 v 18 UTC do 19 v 18 UTC
Jihovýchodní vítr 8 kt
Viditelnost: 6000 m
Oblačno až skoro zataženo ve výšce 1000 ft
Změna
od 19 v 04 UTC do 19 v 06 UTC
Východoseverovýchodní vítr 8 kt
Dočasný
od 18 v 22 UTC do 19 v 04 UTC
Oblačno až skoro zataženo ve výšce 400 ft
Skoro jasno ve výšce 3000 ft, Cumulonimbus.
Zataženo ve výšce 4000 ft
dešťové přeháňky

TAF: ZSPD 181513Z 1818/1918 13004MPS 6000 BKN010 TX28/1906Z TN22/1821Z BECMG 1904/1906 06004MPS TEMPO 1822/1904 SHRA BKN004 FEW030CB OVC040

Stav a předpovědi počasí z více než 4 000 letišť (zprávy METAR a TAF).

Červené a žluté tečky na mapě představují dostupné meteorologické stanice.

Když kurzor umístíte na tečku, zobrazí se název stanice.

Pak kliknutím zobrazíte stav a předpověď počasí.

Chcete-li změnit mapu, kliknutím na zelené tlačítko se znaménkem +mapu přiblížíte, kliknutím na zelené tlačítko se znaménkem – mapu oddálíte a kliknutím na zelené šipky přejdete na sousední mapy.


METAR-TAF: